createdAt,value
2023-04-09T00:00:00.276Z,101660.78
2023-04-09T00:02:29.590Z,101682.38
2023-04-09T00:04:57.341Z,101676.59
2023-04-09T00:07:25.219Z,101676.03
2023-04-09T00:09:52.904Z,101683.28
2023-04-09T00:12:20.708Z,101663.59
2023-04-09T00:14:48.386Z,101683.69
2023-04-09T00:17:16.419Z,101682.25
2023-04-09T00:19:45.490Z,101683.72
2023-04-09T00:22:13.182Z,101683.41
2023-04-09T00:24:41.016Z,101693.41
2023-04-09T00:27:08.707Z,101664.69
2023-04-09T00:29:36.749Z,101666.47
2023-04-09T00:32:04.475Z,101684.88
2023-04-09T00:34:32.282Z,101674.75
2023-04-09T00:37:01.902Z,101663.38
2023-04-09T00:39:29.638Z,101671.69
2023-04-09T00:41:59.042Z,101669.19
2023-04-09T00:44:26.844Z,101668.88
2023-04-09T00:46:55.364Z,101671.41
2023-04-09T00:49:24.835Z,101665.66
2023-04-09T00:51:52.645Z,101671.41
2023-04-09T00:54:21.911Z,101666.78
2023-04-09T00:56:49.611Z,101656.41
2023-04-09T00:59:17.325Z,101661.94
2023-04-09T01:01:45.038Z,101653.66
2023-04-09T01:04:12.831Z,101648.97
2023-04-09T01:06:45.397Z,101660.78
2023-04-09T01:09:19.682Z,101658.97
2023-04-09T01:11:55.038Z,101657.84
2023-04-09T01:14:26.284Z,101658.47
2023-04-09T01:16:57.656Z,101662.97
2023-04-09T01:19:38.371Z,101658.59
2023-04-09T01:22:07.446Z,101667.16
2023-04-09T01:24:43.137Z,101656.94
2023-04-09T01:27:13.307Z,101658.88
2023-04-09T01:29:47.773Z,101664.34
2023-04-09T01:32:18.008Z,101655.06
2023-04-09T01:34:46.421Z,101650.28
2023-04-09T01:37:15.230Z,101660.34
2023-04-09T01:39:43.311Z,101644.28
2023-04-09T01:42:12.308Z,101656.44
2023-04-09T01:44:42.110Z,101659.25
2023-04-09T01:47:10.300Z,101655.94
2023-04-09T01:49:38.979Z,101657.34
2023-04-09T01:52:06.927Z,101664.25
2023-04-09T01:54:34.621Z,101663.97
2023-04-09T01:57:02.422Z,101661.41
2023-04-09T01:59:30.328Z,101664.91
2023-04-09T02:02:01.431Z,101645.53
2023-04-09T02:04:33.736Z,101648.53
2023-04-09T02:07:27.520Z,101651.94
2023-04-09T02:09:55.721Z,101658.97
2023-04-09T02:12:23.642Z,101642.19
2023-04-09T02:14:53.405Z,101660.41
2023-04-09T02:17:22.838Z,101657.41
2023-04-09T02:19:50.877Z,101650.91
2023-04-09T02:22:18.997Z,101640.63
2023-04-09T02:24:47.681Z,101634.16
2023-04-09T02:27:15.384Z,101651.88
2023-04-09T02:30:03.299Z,101645.06
2023-04-09T02:32:32.463Z,101651.25
2023-04-09T02:35:00.142Z,101642.66
2023-04-09T02:37:27.840Z,101634.81
2023-04-09T02:39:55.494Z,101639.47
2023-04-09T02:42:23.165Z,101636.19
2023-04-09T02:44:50.830Z,101635.00
2023-04-09T02:47:18.561Z,101615.97
2023-04-09T02:49:47.659Z,101620.47
2023-04-09T02:52:15.368Z,101619.38
2023-04-09T02:54:43.028Z,101612.19
2023-04-09T02:57:10.778Z,101610.44
2023-04-09T02:59:39.112Z,101593.81
2023-04-09T03:02:06.991Z,101603.06
2023-04-09T03:04:34.705Z,101598.91
2023-04-09T03:07:03.848Z,101609.88
2023-04-09T03:09:31.768Z,101596.84
2023-04-09T03:11:59.460Z,101605.94
2023-04-09T03:14:27.194Z,101595.81
2023-04-09T03:16:54.888Z,101594.34
2023-04-09T03:19:22.560Z,101606.19
2023-04-09T03:21:51.361Z,101599.25
2023-04-09T03:24:20.534Z,101585.31
2023-04-09T03:26:48.331Z,101606.47
2023-04-09T03:29:16.300Z,101598.06
2023-04-09T03:31:44.140Z,101602.09
2023-04-09T03:34:11.935Z,101606.22
2023-04-09T03:36:39.608Z,101596.09
2023-04-09T03:39:07.277Z,101593.06
2023-04-09T03:41:36.382Z,101605.34
2023-04-09T03:44:04.058Z,101595.63
2023-04-09T03:46:31.709Z,101592.44
2023-04-09T03:48:59.436Z,101592.50
2023-04-09T03:51:27.838Z,101594.28
2023-04-09T03:53:55.586Z,101587.25
2023-04-09T03:56:23.296Z,101587.41
2023-04-09T03:58:52.749Z,101588.44
2023-04-09T04:01:20.679Z,101583.66
2023-04-09T04:03:48.517Z,101593.78
2023-04-09T04:06:16.290Z,101590.75
2023-04-09T04:08:44.709Z,101596.94
2023-04-09T04:11:12.454Z,101588.91
2023-04-09T04:13:40.247Z,101582.25
2023-04-09T04:16:10.582Z,101592.50
2023-04-09T04:18:38.448Z,101577.81
2023-04-09T04:21:06.207Z,101580.84
2023-04-09T04:23:35.248Z,101589.22
2023-04-09T04:26:03.438Z,101588.94
2023-04-09T04:28:31.101Z,101602.09
2023-04-09T04:30:58.777Z,101586.50
2023-04-09T04:33:27.916Z,101593.00
2023-04-09T04:35:55.844Z,101591.53
2023-04-09T04:38:23.579Z,101588.25
2023-04-09T04:40:51.498Z,101611.13
2023-04-09T04:43:19.207Z,101591.16
2023-04-09T04:45:46.926Z,101586.13
2023-04-09T04:48:14.633Z,101594.13
2023-04-09T04:50:43.688Z,101603.56
2023-04-09T04:53:11.432Z,101596.38
2023-04-09T04:55:40.391Z,101583.44
2023-04-09T04:58:08.163Z,101584.00
2023-04-09T05:00:35.882Z,101608.09
2023-04-09T05:03:03.851Z,101587.94
2023-04-09T05:05:31.699Z,101591.13
2023-04-09T05:08:00.809Z,101602.09
2023-04-09T05:10:28.524Z,101609.34
2023-04-09T05:12:56.203Z,101598.50
2023-04-09T05:15:23.947Z,101595.84
2023-04-09T05:17:51.684Z,101584.50
2023-04-09T05:20:19.632Z,101600.97
2023-04-09T05:22:47.347Z,101594.84
2023-04-09T05:25:17.234Z,101586.50
2023-04-09T05:27:44.997Z,101592.97
2023-04-09T05:30:13.475Z,101605.69
2023-04-09T05:32:41.247Z,101610.03
2023-04-09T05:35:27.423Z,101599.53
2023-04-09T05:37:55.104Z,101593.22
2023-04-09T05:40:24.300Z,101593.06
2023-04-09T05:42:52.124Z,101617.72
2023-04-09T05:45:19.776Z,101603.56
2023-04-09T05:47:47.530Z,101609.31
2023-04-09T05:50:15.320Z,101622.22
2023-04-09T05:53:26.794Z,101608.66
2023-04-09T05:55:55.990Z,101597.19
2023-04-09T05:58:23.692Z,101607.50
2023-04-09T06:00:52.617Z,101603.94
2023-04-09T06:03:20.640Z,101603.81
2023-04-09T06:05:48.733Z,101615.00
2023-04-09T06:08:16.649Z,101604.31
2023-04-09T06:10:44.363Z,101614.31
2023-04-09T06:13:13.446Z,101603.53
2023-04-09T06:15:41.235Z,101615.97
2023-04-09T06:18:09.032Z,101607.16
2023-04-09T06:20:36.838Z,101610.97
2023-04-09T06:23:04.962Z,101601.75
2023-04-09T06:25:32.619Z,101611.84
2023-04-09T06:28:00.295Z,101606.16
2023-04-09T06:30:29.816Z,101622.59
2023-04-09T06:32:57.516Z,101621.13
2023-04-09T06:35:27.969Z,101615.59
2023-04-09T06:37:55.677Z,101618.19
2023-04-09T06:40:23.552Z,101607.69
2023-04-09T06:42:51.547Z,101635.41
2023-04-09T06:45:19.284Z,101641.84
2023-04-09T06:47:48.484Z,101644.22
2023-04-09T06:50:16.258Z,101630.69
2023-04-09T06:52:43.957Z,101630.56
2023-04-09T06:55:11.701Z,101637.38
2023-04-09T06:57:39.791Z,101642.66
2023-04-09T07:00:09.661Z,101644.25
2023-04-09T07:02:37.587Z,101630.88
2023-04-09T07:05:07.861Z,101636.84
2023-04-09T07:07:35.588Z,101635.19
2023-04-09T07:10:03.287Z,101618.88
2023-04-09T07:12:31.664Z,101624.97
2023-04-09T07:15:00.057Z,101623.00
2023-04-09T07:17:27.781Z,101631.88
2023-04-09T07:19:55.692Z,101631.63
2023-04-09T07:22:26.788Z,101626.75
2023-04-09T07:24:55.137Z,101634.72
2023-04-09T07:27:23.314Z,101640.16
2023-04-09T07:29:51.131Z,101635.41
2023-04-09T07:32:18.834Z,101630.97
2023-04-09T07:34:46.643Z,101653.56
2023-04-09T07:37:14.330Z,101624.13
2023-04-09T07:39:43.751Z,101643.09
2023-04-09T07:42:11.455Z,101640.97
2023-04-09T07:44:39.558Z,101633.22
2023-04-09T07:47:08.582Z,101652.03
2023-04-09T07:49:37.519Z,101634.16
2023-04-09T07:52:05.829Z,101648.97
2023-04-09T07:54:33.668Z,101660.88
2023-04-09T07:57:02.907Z,101637.72
2023-04-09T07:59:31.725Z,101632.41
2023-04-09T08:02:00.031Z,101638.94
2023-04-09T08:04:28.365Z,101631.41
2023-04-09T08:06:56.146Z,101648.88
2023-04-09T08:09:29.885Z,101640.22
2023-04-09T08:11:57.795Z,101638.31
2023-04-09T08:14:26.965Z,101637.09
2023-04-09T08:17:15.070Z,101632.66
2023-04-09T08:19:46.377Z,101641.66
2023-04-09T08:22:14.077Z,101636.19
2023-04-09T08:24:43.370Z,101637.09
2023-04-09T08:27:11.091Z,101635.88
2023-04-09T08:29:40.585Z,101643.78
2023-04-09T08:32:08.326Z,101654.22
2023-04-09T08:34:36.028Z,101648.72
2023-04-09T08:37:03.716Z,101624.22
2023-04-09T08:39:31.826Z,101644.88
2023-04-09T08:42:01.825Z,101638.84
2023-04-09T08:44:30.584Z,101642.63
2023-04-09T08:47:01.060Z,101640.53
2023-04-09T08:49:28.809Z,101627.66
2023-04-09T08:51:56.542Z,101638.03
2023-04-09T08:54:26.685Z,101644.72
2023-04-09T08:56:54.463Z,101625.63
2023-04-09T08:59:22.142Z,101624.19
2023-04-09T09:02:13.220Z,101625.41
2023-04-09T09:04:50.360Z,101628.31
2023-04-09T09:07:18.313Z,101634.81
2023-04-09T09:09:53.816Z,101622.06
2023-04-09T09:12:33.019Z,101623.38
2023-04-09T09:15:28.058Z,101611.88
2023-04-09T09:17:58.409Z,101614.09
2023-04-09T09:20:27.976Z,101623.63
2023-04-09T09:22:57.148Z,101606.31
2023-04-09T09:25:26.407Z,101621.97
2023-04-09T09:27:55.288Z,101637.63
2023-04-09T09:30:24.223Z,101639.47
2023-04-09T09:32:54.555Z,101613.34
2023-04-09T09:35:22.489Z,101612.22
2023-04-09T09:38:02.303Z,101612.00
2023-04-09T09:40:30.090Z,101621.38
2023-04-09T09:42:58.315Z,101621.13
2023-04-09T09:45:26.517Z,101628.75
2023-04-09T09:47:54.896Z,101617.56
2023-04-09T09:50:25.388Z,101622.75
2023-04-09T09:52:59.445Z,101611.19
2023-04-09T09:55:29.071Z,101608.88
2023-04-09T09:57:58.068Z,101605.31
2023-04-09T10:00:26.680Z,101635.75
2023-04-09T10:02:59.063Z,101623.69
2023-04-09T10:05:28.921Z,101590.75
2023-04-09T10:07:58.725Z,101608.03
2023-04-09T10:10:27.317Z,101600.16
2023-04-09T10:12:55.201Z,101596.41
2023-04-09T10:15:22.923Z,101606.78
2023-04-09T10:17:50.765Z,101580.56
2023-04-09T10:20:21.303Z,101584.63
2023-04-09T10:22:51.790Z,101570.22
2023-04-09T10:25:21.767Z,101586.75
2023-04-09T10:28:00.783Z,101580.03
2023-04-09T10:30:36.052Z,101584.88
2023-04-09T10:33:11.577Z,101565.16
2023-04-09T10:35:39.415Z,101575.44
2023-04-09T10:38:09.613Z,101568.41
2023-04-09T10:40:42.304Z,101555.97
2023-04-09T10:43:11.026Z,101568.25
2023-04-09T10:45:42.671Z,101569.97
2023-04-09T10:48:15.009Z,101562.34
2023-04-09T10:50:44.358Z,101554.41
2023-04-09T10:53:23.139Z,101563.28
2023-04-09T10:55:53.376Z,101550.97
2023-04-09T10:58:21.113Z,101552.38
2023-04-09T11:00:50.281Z,101567.41
2023-04-09T11:03:23.925Z,101560.38
2023-04-09T11:05:53.936Z,101562.38
2023-04-09T11:08:22.620Z,101542.72
2023-04-09T11:10:54.449Z,101559.72
2023-04-09T11:13:22.118Z,101561.72
2023-04-09T11:15:50.051Z,101547.97
2023-04-09T11:18:21.696Z,101538.91
2023-04-09T11:20:49.523Z,101558.63
2023-04-09T11:23:18.690Z,101547.22
2023-04-09T11:25:50.505Z,101538.28
2023-04-09T11:28:20.398Z,101532.16
2023-04-09T11:30:48.500Z,101536.13
2023-04-09T11:33:19.170Z,101534.66
2023-04-09T11:35:47.693Z,101527.13
2023-04-09T11:38:15.441Z,101525.72
2023-04-09T11:40:48.225Z,101524.34
2023-04-09T11:43:17.062Z,101526.22
2023-04-09T11:45:48.270Z,101521.47
2023-04-09T11:48:18.194Z,101551.34
2023-04-09T11:50:46.636Z,101541.44
2023-04-09T11:53:18.925Z,101521.06
2023-04-09T11:55:49.153Z,101529.53
2023-04-09T11:58:17.409Z,101519.97
2023-04-09T12:00:46.678Z,101518.88
2023-04-09T12:03:16.845Z,101527.19
2023-04-09T12:05:50.563Z,101527.03
2023-04-09T12:08:23.964Z,101511.41
2023-04-09T12:10:53.710Z,101528.84
2023-04-09T12:13:21.878Z,101518.38
2023-04-09T12:15:51.493Z,101522.16
2023-04-09T12:18:19.375Z,101523.50
2023-04-09T12:20:49.705Z,101524.28
2023-04-09T12:23:31.434Z,101527.91
2023-04-09T12:26:01.224Z,101536.88
2023-04-09T12:28:29.654Z,101524.03
2023-04-09T12:30:59.739Z,101517.97
2023-04-09T12:33:27.517Z,101514.47
2023-04-09T12:35:56.152Z,101515.75
2023-04-09T12:38:23.876Z,101516.47
2023-04-09T12:40:51.945Z,101518.38
2023-04-09T12:43:19.595Z,101501.19
2023-04-09T12:45:47.351Z,101509.91
2023-04-09T12:48:16.660Z,101495.72
2023-04-09T12:50:44.295Z,101509.91
2023-04-09T12:53:11.943Z,101510.16
2023-04-09T12:55:42.202Z,101493.50
2023-04-09T12:58:10.599Z,101518.69
2023-04-09T13:00:38.380Z,101511.75
2023-04-09T13:03:07.086Z,101532.78
2023-04-09T13:05:36.274Z,101526.94
2023-04-09T13:08:04.257Z,101530.25
2023-04-09T13:10:33.323Z,101524.94
2023-04-09T13:13:00.982Z,101501.97
2023-04-09T13:15:28.645Z,101488.72
2023-04-09T13:17:57.150Z,101502.31
2023-04-09T13:20:24.900Z,101499.63
2023-04-09T13:22:54.039Z,101498.44
2023-04-09T13:25:21.740Z,101488.91
2023-04-09T13:27:49.674Z,101495.59
2023-04-09T13:30:35.665Z,101484.69
2023-04-09T13:33:03.677Z,101474.81
2023-04-09T13:35:32.045Z,101475.53
2023-04-09T13:38:01.334Z,101475.44
2023-04-09T13:40:29.026Z,101476.06
2023-04-09T13:42:56.693Z,101477.44
2023-04-09T13:45:24.654Z,101483.88
2023-04-09T13:47:52.368Z,101484.16
2023-04-09T13:50:20.131Z,101474.88
2023-04-09T13:52:47.743Z,101482.53
2023-04-09T13:55:16.933Z,101479.31
2023-04-09T13:57:44.581Z,101457.53
2023-04-09T14:00:14.054Z,101463.03
2023-04-09T14:02:42.075Z,101450.78
2023-04-09T14:05:10.444Z,101461.03
2023-04-09T14:07:38.142Z,101458.19
2023-04-09T14:10:06.640Z,101451.25
2023-04-09T14:12:35.906Z,101446.19
2023-04-09T14:15:05.095Z,101460.34
2023-04-09T14:17:32.755Z,101462.28
2023-04-09T14:20:03.513Z,101457.41
2023-04-09T14:22:31.556Z,101461.28
2023-04-09T14:24:59.428Z,101449.22
2023-04-09T14:27:27.264Z,101462.28
2023-04-09T14:29:56.303Z,101463.63
2023-04-09T14:32:23.997Z,101470.56
2023-04-09T14:34:51.915Z,101450.47
2023-04-09T14:37:19.595Z,101454.16
2023-04-09T14:39:47.267Z,101444.09
2023-04-09T14:42:14.987Z,101430.50
2023-04-09T14:44:42.692Z,101436.09
2023-04-09T14:49:57.389Z,101445.44
2023-04-09T14:52:26.038Z,101448.38
2023-04-09T14:54:53.665Z,101442.38
2023-04-09T14:57:21.351Z,101443.72
2023-04-09T14:59:49.009Z,101457.97
2023-04-09T15:02:18.622Z,101451.91
2023-04-09T15:04:46.555Z,101447.28
2023-04-09T15:07:14.326Z,101441.53
2023-04-09T15:09:41.996Z,101442.00
2023-04-09T15:12:16.213Z,101450.53
2023-04-09T15:14:44.094Z,101441.81
2023-04-09T15:17:11.773Z,101424.63
2023-04-09T15:19:40.796Z,101427.72
2023-04-09T15:22:08.457Z,101427.84
2023-04-09T15:24:36.109Z,101425.91
2023-04-09T15:27:03.777Z,101418.25
2023-04-09T15:29:31.442Z,101418.03
2023-04-09T15:31:59.193Z,101409.91
2023-04-09T15:34:27.288Z,101425.16
2023-04-09T15:36:56.410Z,101417.00
2023-04-09T15:39:24.579Z,101411.19
2023-04-09T15:41:52.273Z,101424.09
2023-04-09T15:44:19.924Z,101442.84
2023-04-09T15:46:47.552Z,101430.28
2023-04-09T15:49:15.437Z,101415.44
2023-04-09T15:51:43.091Z,101440.50
2023-04-09T15:54:12.225Z,101434.50
2023-04-09T15:56:40.395Z,101409.91
2023-04-09T15:59:08.492Z,101413.91
2023-04-09T16:01:36.872Z,101436.94
2023-04-09T16:04:05.223Z,101412.38
2023-04-09T16:06:33.105Z,101416.50
2023-04-09T16:09:01.358Z,101403.00
2023-04-09T16:11:30.725Z,101408.28
2023-04-09T16:13:58.696Z,101425.84
2023-04-09T16:16:26.430Z,101406.19
2023-04-09T16:18:54.301Z,101409.50
2023-04-09T16:21:22.217Z,101408.84
2023-04-09T16:23:49.886Z,101418.34
2023-04-09T16:26:17.700Z,101418.53
2023-04-09T16:28:46.774Z,101414.75
2023-04-09T16:31:14.784Z,101404.41
2023-04-09T16:33:42.492Z,101374.38
2023-04-09T16:36:10.318Z,101389.94
2023-04-09T16:38:38.111Z,101392.84
2023-04-09T16:41:06.005Z,101406.56
2023-04-09T16:43:33.698Z,101393.19
2023-04-09T16:46:03.200Z,101378.75
2023-04-09T16:48:31.135Z,101382.78
2023-04-09T16:50:58.875Z,101394.38
2023-04-09T16:53:26.742Z,101396.63
2023-04-09T16:55:54.435Z,101400.19
2023-04-09T16:58:22.211Z,101390.69
2023-04-09T17:00:51.438Z,101392.69
2023-04-09T17:03:22.389Z,101378.69
2023-04-09T17:05:50.189Z,101382.00
2023-04-09T17:08:18.283Z,101386.94
2023-04-09T17:10:46.049Z,101378.19
2023-04-09T17:13:13.732Z,101367.91
2023-04-09T17:15:41.496Z,101372.59
2023-04-09T17:18:31.165Z,101372.94
2023-04-09T17:20:59.883Z,101363.47
2023-04-09T17:23:27.599Z,101375.38
2023-04-09T17:25:55.368Z,101367.38
2023-04-09T17:28:23.106Z,101361.69
2023-04-09T17:30:50.983Z,101364.25
2023-04-09T17:33:18.952Z,101373.06
2023-04-09T17:35:50.786Z,101363.47
2023-04-09T17:38:21.370Z,101367.13
2023-04-09T17:40:49.651Z,101366.25
2023-04-09T17:43:17.689Z,101361.69
2023-04-09T17:45:45.692Z,101364.38
2023-04-09T17:48:13.394Z,101365.94
2023-04-09T17:51:00.829Z,101368.06
2023-04-09T17:53:28.489Z,101368.59
2023-04-09T17:55:56.178Z,101377.53
2023-04-09T17:58:24.363Z,101379.63
2023-04-09T18:00:52.888Z,101393.03
2023-04-09T18:03:20.950Z,101383.38
2023-04-09T18:05:49.064Z,101382.13
2023-04-09T18:08:18.323Z,101370.47
2023-04-09T18:11:01.665Z,101380.13
2023-04-09T18:13:39.038Z,101378.97
2023-04-09T18:16:10.024Z,101398.88
2023-04-09T18:18:37.735Z,101399.72
2023-04-09T18:21:06.202Z,101379.84
2023-04-09T18:23:35.522Z,101391.22
2023-04-09T18:26:03.221Z,101393.28
2023-04-09T18:28:30.888Z,101396.00
2023-04-09T18:30:58.910Z,101399.97
2023-04-09T18:33:27.130Z,101384.19
2023-04-09T18:35:54.936Z,101389.31
2023-04-09T18:38:22.827Z,101392.22
2023-04-09T18:40:51.881Z,101387.97
2023-04-09T18:43:19.626Z,101392.94
2023-04-09T18:45:47.303Z,101395.00
2023-04-09T18:48:14.974Z,101395.72
2023-04-09T18:50:42.641Z,101382.28
2023-04-09T18:53:10.607Z,101392.75
2023-04-09T18:55:38.576Z,101383.03
2023-04-09T18:58:08.954Z,101396.69
2023-04-09T19:00:36.785Z,101402.47
2023-04-09T19:03:05.659Z,101395.25
2023-04-09T19:05:33.872Z,101398.16
2023-04-09T19:08:02.699Z,101403.97
2023-04-09T19:10:30.760Z,101399.63
2023-04-09T19:12:58.429Z,101403.44
2023-04-09T19:15:33.394Z,101398.22
2023-04-09T19:18:01.466Z,101396.91
2023-04-09T19:20:29.161Z,101396.97
2023-04-09T19:22:57.425Z,101403.75
2023-04-09T19:25:25.240Z,101386.88
2023-04-09T19:27:54.278Z,101385.59
2023-04-09T19:30:22.129Z,101404.56
2023-04-09T19:32:51.390Z,101403.97
2023-04-09T19:35:19.108Z,101385.63
2023-04-09T19:37:46.826Z,101382.97
2023-04-09T19:40:16.999Z,101386.50
2023-04-09T19:42:44.809Z,101387.59
2023-04-09T19:45:13.389Z,101367.13
2023-04-09T19:47:41.267Z,101378.56
2023-04-09T19:50:11.392Z,101391.34
2023-04-09T19:52:41.314Z,101378.91
2023-04-09T19:55:10.495Z,101375.47
2023-04-09T19:57:38.189Z,101366.19
2023-04-09T20:00:07.314Z,101360.75
2023-04-09T20:02:35.152Z,101365.53
2023-04-09T20:05:02.996Z,101358.78
2023-04-09T20:07:32.710Z,101362.31
2023-04-09T20:10:00.829Z,101359.75
2023-04-09T20:12:29.624Z,101370.34
2023-04-09T20:14:57.412Z,101361.88
2023-04-09T20:17:25.340Z,101362.13
2023-04-09T20:19:53.071Z,101367.16
2023-04-09T20:22:20.848Z,101370.97
2023-04-09T20:24:52.066Z,101375.97
2023-04-09T20:27:19.699Z,101377.00
2023-04-09T20:29:48.069Z,101375.50
2023-04-09T20:32:15.789Z,101373.06
2023-04-09T20:34:43.549Z,101398.84
2023-04-09T20:37:11.522Z,101399.59
2023-04-09T20:39:39.221Z,101384.91
2023-04-09T20:42:08.223Z,101393.47
2023-04-09T20:44:36.191Z,101378.13
2023-04-09T20:47:03.888Z,101374.84
2023-04-09T20:49:31.556Z,101366.16
2023-04-09T20:51:59.452Z,101362.84
2023-04-09T20:54:27.557Z,101379.41
2023-04-09T20:56:55.388Z,101371.94
2023-04-09T20:59:24.960Z,101352.28
2023-04-09T21:01:54.140Z,101382.25
2023-04-09T21:04:21.992Z,101367.59
2023-04-09T21:06:49.742Z,101371.72
2023-04-09T21:09:17.391Z,101375.88
2023-04-09T21:11:45.046Z,101370.50
2023-04-09T21:14:14.612Z,101374.72
2023-04-09T21:16:43.735Z,101372.72
2023-04-09T21:19:11.735Z,101357.03
2023-04-09T21:21:39.431Z,101339.06
2023-04-09T21:24:07.121Z,101325.63
2023-04-09T21:26:49.192Z,101345.69
2023-04-09T21:29:18.463Z,101326.44
2023-04-09T21:31:48.642Z,101329.72
2023-04-09T21:34:16.836Z,101326.47
2023-04-09T21:36:45.529Z,101321.06
2023-04-09T21:39:13.401Z,101315.59
2023-04-09T21:41:41.239Z,101321.03
2023-04-09T21:44:09.026Z,101329.13
2023-04-09T21:46:37.212Z,101314.50
2023-04-09T21:49:22.034Z,101319.31
2023-04-09T21:51:49.700Z,101327.84
2023-04-09T21:54:17.337Z,101320.22
2023-04-09T21:56:44.985Z,101328.72
2023-04-09T21:59:12.662Z,101332.59
2023-04-09T22:01:40.395Z,101332.44
2023-04-09T22:04:08.403Z,101329.44
2023-04-09T22:06:38.274Z,101323.97
2023-04-09T22:09:06.122Z,101334.31
2023-04-09T22:11:34.462Z,101345.50
2023-04-09T22:14:02.266Z,101346.09
2023-04-09T22:16:29.919Z,101351.56
2023-04-09T22:18:58.006Z,101328.75
2023-04-09T22:21:26.465Z,101332.72
2023-04-09T22:23:55.992Z,101344.94
2023-04-09T22:26:23.853Z,101328.22
2023-04-09T22:28:51.635Z,101332.88
2023-04-09T22:31:40.293Z,101329.97
2023-04-09T22:34:20.100Z,101329.25
2023-04-09T22:36:49.320Z,101340.19
2023-04-09T22:39:18.495Z,101324.16
2023-04-09T22:41:46.123Z,101327.06
2023-04-09T22:44:13.765Z,101314.19
2023-04-09T22:46:42.174Z,101332.06
2023-04-09T22:49:10.071Z,101328.88
2023-04-09T22:51:40.174Z,101324.81
2023-04-09T22:54:09.096Z,101330.38
2023-04-09T22:56:38.459Z,101341.34
2023-04-09T22:59:06.243Z,101361.47
2023-04-09T23:01:34.100Z,101350.41
2023-04-09T23:04:01.902Z,101357.75
2023-04-09T23:06:30.960Z,101348.53
2023-04-09T23:08:59.847Z,101352.91
2023-04-09T23:11:27.691Z,101370.63
2023-04-09T23:13:56.756Z,101356.03
2023-04-09T23:16:24.508Z,101366.09
2023-04-09T23:18:52.526Z,101347.16
2023-04-09T23:21:20.844Z,101361.28
2023-04-09T23:23:48.991Z,101348.13
2023-04-09T23:26:16.650Z,101362.22
2023-04-09T23:28:44.338Z,101355.59
2023-04-09T23:31:13.420Z,101332.03
2023-04-09T23:33:41.378Z,101347.78
2023-04-09T23:36:09.590Z,101345.28
2023-04-09T23:38:37.298Z,101339.75
2023-04-09T23:41:05.218Z,101341.22
2023-04-09T23:43:32.864Z,101343.38
2023-04-09T23:46:00.490Z,101340.47
2023-04-09T23:48:29.591Z,101327.50
2023-04-09T23:50:57.247Z,101316.44
2023-04-09T23:53:25.022Z,101327.44
2023-04-09T23:55:52.795Z,101325.44
2023-04-09T23:58:21.362Z,101303.63
